createdAt,value
2023-05-20T00:07:42.894Z,5.23
2023-05-20T00:18:05.064Z,5.85
2023-05-20T00:28:27.006Z,5.73
2023-05-20T00:38:48.866Z,6.80
2023-05-20T00:49:11.311Z,6.70
2023-05-20T00:59:35.274Z,6.88
2023-05-20T01:09:57.393Z,5.20
2023-05-20T01:20:20.722Z,7.73
2023-05-20T01:30:48.616Z,6.32
2023-05-20T01:41:12.212Z,7.33
2023-05-20T01:51:35.237Z,6.30
2023-05-20T02:01:57.219Z,5.70
2023-05-20T02:12:19.232Z,5.53
2023-05-20T02:22:41.005Z,6.03
2023-05-20T02:33:04.380Z,5.80
2023-05-20T02:43:26.451Z,7.03
2023-05-20T02:53:48.421Z,6.30
2023-05-20T03:04:10.494Z,7.23
2023-05-20T03:14:32.336Z,6.72
2023-05-20T03:24:54.073Z,6.40
2023-05-20T03:35:16.340Z,7.13
2023-05-20T03:45:38.356Z,8.80
2023-05-20T03:56:00.550Z,10.80
2023-05-20T04:06:22.647Z,6.13
2023-05-20T04:16:45.858Z,7.00
2023-05-20T04:27:07.762Z,7.60
2023-05-20T04:37:29.812Z,6.50
2023-05-20T04:47:53.221Z,7.50
2023-05-20T04:58:17.217Z,5.32
2023-05-20T05:08:39.056Z,7.80
2023-05-20T05:19:00.873Z,6.50
2023-05-20T05:29:22.746Z,5.53
2023-05-20T05:39:44.699Z,6.50
2023-05-20T05:50:06.885Z,7.10
2023-05-20T06:00:28.738Z,7.85
2023-05-20T06:10:50.943Z,6.05
2023-05-20T06:21:12.944Z,7.87
2023-05-20T06:31:34.900Z,7.53
2023-05-20T06:41:57.002Z,7.15
2023-05-20T06:52:18.864Z,11.23
2023-05-20T07:02:40.744Z,7.27
2023-05-20T07:12:42.274Z,6.40
2023-05-20T07:22:44.494Z,6.03
2023-05-20T07:32:46.254Z,7.10
2023-05-20T07:42:48.254Z,7.03
2023-05-20T07:52:56.667Z,6.40
2023-05-20T08:02:58.572Z,8.00
2023-05-20T08:13:00.828Z,7.27
2023-05-20T08:23:02.524Z,8.07
2023-05-20T08:33:04.633Z,10.63
2023-05-20T08:43:27.160Z,11.90
2023-05-20T08:53:28.738Z,9.95
2023-05-20T09:03:30.559Z,10.40
2023-05-20T09:13:35.399Z,8.57
2023-05-20T09:23:38.509Z,9.60
2023-05-20T09:33:41.062Z,7.90
2023-05-20T09:43:43.042Z,9.30
2023-05-20T09:53:44.716Z,12.50
2023-05-20T10:03:46.649Z,9.52
2023-05-20T10:14:13.855Z,8.20
2023-05-20T10:24:19.472Z,9.77
2023-05-20T10:34:23.120Z,7.80
2023-05-20T10:44:25.982Z,15.53
2023-05-20T10:54:28.970Z,7.13
2023-05-20T11:04:31.714Z,7.30
2023-05-20T11:14:33.326Z,6.80
2023-05-20T11:24:34.950Z,8.17
2023-05-20T11:34:37.824Z,9.27
2023-05-20T11:44:44.641Z,7.78
2023-05-20T11:54:52.375Z,10.57
2023-05-20T12:04:54.025Z,8.70
2023-05-20T12:14:55.896Z,7.57
2023-05-20T12:25:19.558Z,7.67
2023-05-20T12:35:44.930Z,7.37
2023-05-20T12:45:46.867Z,7.97
2023-05-20T12:55:48.329Z,8.20
2023-05-20T13:05:49.835Z,6.97
2023-05-20T13:15:51.411Z,9.40
2023-05-20T13:26:13.611Z,7.15
2023-05-20T13:36:35.500Z,6.97
2023-05-20T13:46:57.438Z,7.17
2023-05-20T13:56:58.966Z,5.57
2023-05-20T14:07:00.567Z,6.23
2023-05-20T14:17:02.012Z,6.20
2023-05-20T14:27:05.273Z,7.63
2023-05-20T14:37:09.942Z,5.20
2023-05-20T14:47:11.729Z,5.37
2023-05-20T14:57:13.470Z,5.30
2023-05-20T15:07:35.394Z,6.28
2023-05-20T15:17:37.079Z,5.87
2023-05-20T15:27:38.714Z,6.00
2023-05-20T15:37:40.284Z,8.27
2023-05-20T15:47:43.274Z,5.63
2023-05-20T15:57:45.111Z,5.73
2023-05-20T16:07:46.863Z,8.48
2023-05-20T16:17:48.368Z,6.00
2023-05-20T16:27:49.820Z,6.33
2023-05-20T16:37:51.498Z,5.17
2023-05-20T16:47:53.042Z,6.72
2023-05-20T16:57:54.509Z,6.80
2023-05-20T17:07:59.963Z,7.17
2023-05-20T17:18:01.695Z,6.63
2023-05-20T17:28:03.275Z,5.43
2023-05-20T17:38:04.869Z,7.87
2023-05-20T17:48:09.993Z,6.20
2023-05-20T17:58:13.289Z,7.13
2023-05-20T18:08:35.080Z,6.27
2023-05-20T18:18:57.810Z,8.03
2023-05-20T18:29:19.616Z,6.53
2023-05-20T18:39:41.552Z,7.77
2023-05-20T18:49:43.398Z,8.63
2023-05-20T18:59:44.791Z,7.05
2023-05-20T19:09:46.451Z,8.13
2023-05-20T19:20:08.975Z,8.93
2023-05-20T19:30:31.172Z,9.60
2023-05-20T19:40:53.102Z,9.53
2023-05-20T19:51:15.010Z,8.77
2023-05-20T20:01:37.015Z,8.73
2023-05-20T20:11:59.031Z,9.40
2023-05-20T20:22:20.912Z,11.97
2023-05-20T20:32:42.860Z,10.77
2023-05-20T20:43:06.808Z,7.57
2023-05-20T20:53:28.666Z,13.40
2023-05-20T21:03:54.447Z,10.07
2023-05-20T21:14:16.505Z,9.88
2023-05-20T21:24:39.279Z,9.03
2023-05-20T21:35:01.065Z,10.83
2023-05-20T21:45:23.043Z,11.20
2023-05-20T21:55:44.960Z,12.05
2023-05-20T22:06:06.916Z,13.37
2023-05-20T22:16:28.867Z,12.03
2023-05-20T22:26:51.760Z,11.63
2023-05-20T22:37:14.191Z,12.73
2023-05-20T22:47:36.031Z,13.37
2023-05-20T22:57:57.968Z,12.18
2023-05-20T23:08:19.765Z,12.20
2023-05-20T23:18:41.652Z,11.33
2023-05-20T23:29:05.271Z,12.40
2023-05-20T23:39:27.230Z,12.80
2023-05-20T23:49:49.609Z,12.47
